sensor_id;sensor_type;location;lat;lon;timestamp;P1;durP1;ratioP1;P2;durP2;ratioP2
15356;SDS011;7778;48.792;9.260;2023-05-18T00:00:53;7.07;;;3.47;;
15356;SDS011;7778;48.792;9.260;2023-05-18T00:03:41;9.82;;;4.22;;
15356;SDS011;7778;48.792;9.260;2023-05-18T00:06:27;8.27;;;3.90;;
15356;SDS011;7778;48.792;9.260;2023-05-18T00:09:12;7.80;;;4.13;;
15356;SDS011;7778;48.792;9.260;2023-05-18T00:11:58;11.00;;;4.35;;
15356;SDS011;7778;48.792;9.260;2023-05-18T00:14:46;8.18;;;4.10;;
15356;SDS011;7778;48.792;9.260;2023-05-18T00:17:32;6.95;;;3.90;;
15356;SDS011;7778;48.792;9.260;2023-05-18T00:20:18;9.73;;;4.03;;
15356;SDS011;7778;48.792;9.260;2023-05-18T00:23:04;8.95;;;3.83;;
15356;SDS011;7778;48.792;9.260;2023-05-18T00:25:59;10.43;;;3.67;;
15356;SDS011;7778;48.792;9.260;2023-05-18T00:28:46;8.85;;;4.63;;
15356;SDS011;7778;48.792;9.260;2023-05-18T00:31:32;10.13;;;5.22;;
15356;SDS011;7778;48.792;9.260;2023-05-18T00:34:19;7.68;;;4.65;;
15356;SDS011;7778;48.792;9.260;2023-05-18T00:37:04;7.13;;;4.32;;
15356;SDS011;7778;48.792;9.260;2023-05-18T00:39:50;11.38;;;4.78;;
15356;SDS011;7778;48.792;9.260;2023-05-18T00:42:35;9.43;;;4.72;;
15356;SDS011;7778;48.792;9.260;2023-05-18T00:45:21;7.63;;;4.20;;
15356;SDS011;7778;48.792;9.260;2023-05-18T00:48:08;9.40;;;4.47;;
15356;SDS011;7778;48.792;9.260;2023-05-18T00:50:53;7.28;;;4.60;;
15356;SDS011;7778;48.792;9.260;2023-05-18T00:53:39;7.53;;;4.68;;
15356;SDS011;7778;48.792;9.260;2023-05-18T00:56:25;8.82;;;4.85;;
15356;SDS011;7778;48.792;9.260;2023-05-18T00:59:12;8.00;;;3.90;;
15356;SDS011;7778;48.792;9.260;2023-05-18T01:01:59;9.82;;;4.20;;
15356;SDS011;7778;48.792;9.260;2023-05-18T01:04:46;8.05;;;5.00;;
15356;SDS011;7778;48.792;9.260;2023-05-18T01:07:32;9.40;;;4.45;;
15356;SDS011;7778;48.792;9.260;2023-05-18T01:10:18;6.38;;;3.75;;
15356;SDS011;7778;48.792;9.260;2023-05-18T01:13:05;7.68;;;4.20;;
15356;SDS011;7778;48.792;9.260;2023-05-18T01:15:57;8.20;;;4.68;;
15356;SDS011;7778;48.792;9.260;2023-05-18T01:18:46;7.55;;;3.97;;
15356;SDS011;7778;48.792;9.260;2023-05-18T01:21:47;8.20;;;4.05;;
15356;SDS011;7778;48.792;9.260;2023-05-18T01:24:43;7.55;;;3.75;;
15356;SDS011;7778;48.792;9.260;2023-05-18T01:27:37;8.20;;;4.28;;
15356;SDS011;7778;48.792;9.260;2023-05-18T01:30:25;10.80;;;4.07;;
15356;SDS011;7778;48.792;9.260;2023-05-18T01:33:11;13.55;;;4.55;;
15356;SDS011;7778;48.792;9.260;2023-05-18T01:35:57;8.02;;;4.40;;
15356;SDS011;7778;48.792;9.260;2023-05-18T01:38:43;9.32;;;4.55;;
15356;SDS011;7778;48.792;9.260;2023-05-18T01:41:29;10.23;;;4.55;;
15356;SDS011;7778;48.792;9.260;2023-05-18T01:44:21;9.80;;;4.10;;
15356;SDS011;7778;48.792;9.260;2023-05-18T01:47:11;7.65;;;4.00;;
15356;SDS011;7778;48.792;9.260;2023-05-18T01:49:58;6.07;;;3.83;;
15356;SDS011;7778;48.792;9.260;2023-05-18T01:52:50;8.65;;;4.25;;
15356;SDS011;7778;48.792;9.260;2023-05-18T01:55:42;9.20;;;4.22;;
15356;SDS011;7778;48.792;9.260;2023-05-18T01:58:29;7.63;;;4.00;;
15356;SDS011;7778;48.792;9.260;2023-05-18T02:01:18;10.52;;;4.22;;
15356;SDS011;7778;48.792;9.260;2023-05-18T02:04:06;7.22;;;4.40;;
15356;SDS011;7778;48.792;9.260;2023-05-18T02:06:53;15.00;;;6.15;;
15356;SDS011;7778;48.792;9.260;2023-05-18T02:09:38;8.23;;;4.60;;
15356;SDS011;7778;48.792;9.260;2023-05-18T02:12:24;8.63;;;4.50;;
15356;SDS011;7778;48.792;9.260;2023-05-18T02:15:09;9.82;;;4.63;;
15356;SDS011;7778;48.792;9.260;2023-05-18T02:17:56;8.70;;;4.18;;
15356;SDS011;7778;48.792;9.260;2023-05-18T02:20:42;9.90;;;4.13;;
15356;SDS011;7778;48.792;9.260;2023-05-18T02:23:31;9.60;;;4.78;;
15356;SDS011;7778;48.792;9.260;2023-05-18T02:26:17;9.45;;;4.35;;
15356;SDS011;7778;48.792;9.260;2023-05-18T02:29:03;7.60;;;3.95;;
15356;SDS011;7778;48.792;9.260;2023-05-18T02:31:50;9.00;;;4.53;;
15356;SDS011;7778;48.792;9.260;2023-05-18T02:34:37;6.25;;;4.13;;
15356;SDS011;7778;48.792;9.260;2023-05-18T02:37:24;7.97;;;4.43;;
15356;SDS011;7778;48.792;9.260;2023-05-18T02:40:11;11.88;;;4.70;;
15356;SDS011;7778;48.792;9.260;2023-05-18T02:42:58;7.53;;;4.35;;
15356;SDS011;7778;48.792;9.260;2023-05-18T02:45:44;9.90;;;4.32;;
15356;SDS011;7778;48.792;9.260;2023-05-18T02:48:29;7.13;;;3.72;;
15356;SDS011;7778;48.792;9.260;2023-05-18T02:51:16;4.72;;;3.20;;
15356;SDS011;7778;48.792;9.260;2023-05-18T02:54:02;5.20;;;2.85;;
15356;SDS011;7778;48.792;9.260;2023-05-18T02:56:47;8.93;;;4.57;;
15356;SDS011;7778;48.792;9.260;2023-05-18T02:59:33;7.22;;;3.45;;
15356;SDS011;7778;48.792;9.260;2023-05-18T03:02:19;7.80;;;3.67;;
15356;SDS011;7778;48.792;9.260;2023-05-18T03:05:06;5.28;;;3.65;;
15356;SDS011;7778;48.792;9.260;2023-05-18T03:07:54;5.63;;;3.83;;
15356;SDS011;7778;48.792;9.260;2023-05-18T03:10:40;7.70;;;3.60;;
15356;SDS011;7778;48.792;9.260;2023-05-18T03:13:26;7.57;;;3.75;;
15356;SDS011;7778;48.792;9.260;2023-05-18T03:16:11;8.75;;;4.10;;
15356;SDS011;7778;48.792;9.260;2023-05-18T03:18:57;13.85;;;4.40;;
15356;SDS011;7778;48.792;9.260;2023-05-18T03:21:44;8.18;;;3.17;;
15356;SDS011;7778;48.792;9.260;2023-05-18T03:24:33;7.75;;;3.97;;
15356;SDS011;7778;48.792;9.260;2023-05-18T03:27:22;12.95;;;4.40;;
15356;SDS011;7778;48.792;9.260;2023-05-18T03:30:10;5.80;;;3.58;;
15356;SDS011;7778;48.792;9.260;2023-05-18T03:32:56;7.53;;;3.90;;
15356;SDS011;7778;48.792;9.260;2023-05-18T03:35:42;6.32;;;3.60;;
15356;SDS011;7778;48.792;9.260;2023-05-18T03:38:28;7.85;;;4.53;;
15356;SDS011;7778;48.792;9.260;2023-05-18T03:41:14;8.80;;;4.63;;
15356;SDS011;7778;48.792;9.260;2023-05-18T03:44:01;8.88;;;3.25;;
15356;SDS011;7778;48.792;9.260;2023-05-18T03:46:46;7.72;;;3.80;;
15356;SDS011;7778;48.792;9.260;2023-05-18T03:49:32;7.25;;;3.75;;
15356;SDS011;7778;48.792;9.260;2023-05-18T03:52:18;7.88;;;3.70;;
15356;SDS011;7778;48.792;9.260;2023-05-18T03:55:05;7.13;;;3.45;;
15356;SDS011;7778;48.792;9.260;2023-05-18T03:57:53;6.43;;;3.75;;
15356;SDS011;7778;48.792;9.260;2023-05-18T04:00:39;7.60;;;3.35;;
15356;SDS011;7778;48.792;9.260;2023-05-18T04:03:26;8.20;;;3.53;;
15356;SDS011;7778;48.792;9.260;2023-05-18T04:06:13;12.20;;;3.65;;
15356;SDS011;7778;48.792;9.260;2023-05-18T04:08:58;8.60;;;3.90;;
15356;SDS011;7778;48.792;9.260;2023-05-18T04:11:47;9.50;;;3.83;;
15356;SDS011;7778;48.792;9.260;2023-05-18T04:14:34;6.68;;;3.72;;
15356;SDS011;7778;48.792;9.260;2023-05-18T04:17:20;7.05;;;3.90;;
15356;SDS011;7778;48.792;9.260;2023-05-18T04:20:06;7.97;;;3.80;;
15356;SDS011;7778;48.792;9.260;2023-05-18T04:22:55;9.27;;;4.35;;
15356;SDS011;7778;48.792;9.260;2023-05-18T04:25:41;8.85;;;4.10;;
15356;SDS011;7778;48.792;9.260;2023-05-18T04:28:26;5.90;;;3.47;;
15356;SDS011;7778;48.792;9.260;2023-05-18T04:31:13;8.00;;;4.50;;
15356;SDS011;7778;48.792;9.260;2023-05-18T04:34:00;11.10;;;5.10;;
15356;SDS011;7778;48.792;9.260;2023-05-18T04:36:46;8.57;;;3.75;;
15356;SDS011;7778;48.792;9.260;2023-05-18T04:39:31;10.55;;;3.72;;
15356;SDS011;7778;48.792;9.260;2023-05-18T04:42:18;6.95;;;3.92;;
15356;SDS011;7778;48.792;9.260;2023-05-18T04:45:05;7.43;;;4.65;;
15356;SDS011;7778;48.792;9.260;2023-05-18T04:47:53;9.05;;;4.25;;
15356;SDS011;7778;48.792;9.260;2023-05-18T04:50:38;7.60;;;3.78;;
15356;SDS011;7778;48.792;9.260;2023-05-18T04:53:24;9.10;;;4.25;;
15356;SDS011;7778;48.792;9.260;2023-05-18T04:56:11;8.88;;;3.78;;
15356;SDS011;7778;48.792;9.260;2023-05-18T04:58:57;7.70;;;4.35;;
15356;SDS011;7778;48.792;9.260;2023-05-18T05:01:43;7.55;;;4.60;;
15356;SDS011;7778;48.792;9.260;2023-05-18T05:04:31;12.88;;;4.32;;
15356;SDS011;7778;48.792;9.260;2023-05-18T05:07:17;9.90;;;4.75;;
15356;SDS011;7778;48.792;9.260;2023-05-18T05:10:02;5.78;;;3.30;;
15356;SDS011;7778;48.792;9.260;2023-05-18T05:12:49;7.38;;;4.32;;
15356;SDS011;7778;48.792;9.260;2023-05-18T05:15:35;11.52;;;3.88;;
15356;SDS011;7778;48.792;9.260;2023-05-18T05:18:20;5.60;;;3.60;;
15356;SDS011;7778;48.792;9.260;2023-05-18T05:21:07;5.97;;;3.65;;
15356;SDS011;7778;48.792;9.260;2023-05-18T05:23:53;7.22;;;3.97;;
15356;SDS011;7778;48.792;9.260;2023-05-18T05:26:39;8.63;;;3.92;;
15356;SDS011;7778;48.792;9.260;2023-05-18T05:29:24;4.47;;;3.33;;
15356;SDS011;7778;48.792;9.260;2023-05-18T05:32:10;5.82;;;3.40;;
15356;SDS011;7778;48.792;9.260;2023-05-18T05:34:56;5.70;;;3.22;;
15356;SDS011;7778;48.792;9.260;2023-05-18T05:37:43;7.78;;;3.08;;
15356;SDS011;7778;48.792;9.260;2023-05-18T05:40:29;6.95;;;3.08;;
15356;SDS011;7778;48.792;9.260;2023-05-18T05:43:14;4.97;;;2.53;;
15356;SDS011;7778;48.792;9.260;2023-05-18T05:46:00;10.73;;;3.30;;
15356;SDS011;7778;48.792;9.260;2023-05-18T05:48:45;6.15;;;3.10;;
15356;SDS011;7778;48.792;9.260;2023-05-18T05:51:31;4.18;;;2.45;;
15356;SDS011;7778;48.792;9.260;2023-05-18T05:54:18;3.28;;;2.20;;
15356;SDS011;7778;48.792;9.260;2023-05-18T05:57:04;7.22;;;2.88;;
15356;SDS011;7778;48.792;9.260;2023-05-18T05:59:49;5.68;;;2.53;;
15356;SDS011;7778;48.792;9.260;2023-05-18T06:02:35;5.85;;;2.45;;
15356;SDS011;7778;48.792;9.260;2023-05-18T06:05:21;6.63;;;2.53;;
15356;SDS011;7778;48.792;9.260;2023-05-18T06:08:07;7.15;;;2.60;;
15356;SDS011;7778;48.792;9.260;2023-05-18T06:10:54;8.13;;;2.88;;
15356;SDS011;7778;48.792;9.260;2023-05-18T06:13:40;4.53;;;2.30;;
15356;SDS011;7778;48.792;9.260;2023-05-18T06:16:25;5.22;;;2.42;;
15356;SDS011;7778;48.792;9.260;2023-05-18T06:19:11;4.78;;;2.28;;
15356;SDS011;7778;48.792;9.260;2023-05-18T06:21:56;5.88;;;2.15;;
15356;SDS011;7778;48.792;9.260;2023-05-18T06:24:42;6.97;;;2.30;;
15356;SDS011;7778;48.792;9.260;2023-05-18T06:27:29;4.85;;;1.98;;
15356;SDS011;7778;48.792;9.260;2023-05-18T06:30:15;4.97;;;2.33;;
15356;SDS011;7778;48.792;9.260;2023-05-18T06:33:01;6.32;;;2.35;;
15356;SDS011;7778;48.792;9.260;2023-05-18T06:35:48;6.70;;;2.55;;
15356;SDS011;7778;48.792;9.260;2023-05-18T06:38:33;6.47;;;2.40;;
15356;SDS011;7778;48.792;9.260;2023-05-18T06:41:19;8.85;;;2.65;;
15356;SDS011;7778;48.792;9.260;2023-05-18T06:44:06;4.78;;;2.08;;
15356;SDS011;7778;48.792;9.260;2023-05-18T06:46:52;7.38;;;2.13;;
15356;SDS011;7778;48.792;9.260;2023-05-18T06:49:37;7.00;;;2.45;;
15356;SDS011;7778;48.792;9.260;2023-05-18T06:52:23;5.00;;;2.33;;
15356;SDS011;7778;48.792;9.260;2023-05-18T06:55:09;5.45;;;2.42;;
15356;SDS011;7778;48.792;9.260;2023-05-18T06:57:54;4.80;;;2.35;;
15356;SDS011;7778;48.792;9.260;2023-05-18T07:00:42;8.30;;;2.58;;
15356;SDS011;7778;48.792;9.260;2023-05-18T07:03:28;4.10;;;1.90;;
15356;SDS011;7778;48.792;9.260;2023-05-18T07:06:15;11.27;;;2.22;;
15356;SDS011;7778;48.792;9.260;2023-05-18T07:09:01;5.53;;;2.17;;
15356;SDS011;7778;48.792;9.260;2023-05-18T07:11:47;4.68;;;2.55;;
15356;SDS011;7778;48.792;9.260;2023-05-18T07:14:33;4.90;;;2.38;;
15356;SDS011;7778;48.792;9.260;2023-05-18T07:17:25;6.93;;;2.22;;
15356;SDS011;7778;48.792;9.260;2023-05-18T07:20:11;4.78;;;2.30;;
15356;SDS011;7778;48.792;9.260;2023-05-18T07:22:58;4.60;;;2.20;;
15356;SDS011;7778;48.792;9.260;2023-05-18T07:25:51;6.15;;;2.47;;
15356;SDS011;7778;48.792;9.260;2023-05-18T07:28:36;4.72;;;2.35;;
15356;SDS011;7778;48.792;9.260;2023-05-18T07:31:23;3.60;;;2.15;;
15356;SDS011;7778;48.792;9.260;2023-05-18T07:34:23;6.53;;;2.70;;
15356;SDS011;7778;48.792;9.260;2023-05-18T07:37:18;3.22;;;2.20;;
15356;SDS011;7778;48.792;9.260;2023-05-18T07:40:10;4.22;;;2.20;;
15356;SDS011;7778;48.792;9.260;2023-05-18T07:42:59;6.78;;;2.38;;
15356;SDS011;7778;48.792;9.260;2023-05-18T07:45:45;3.88;;;1.67;;
15356;SDS011;7778;48.792;9.260;2023-05-18T07:48:31;4.40;;;2.35;;
15356;SDS011;7778;48.792;9.260;2023-05-18T07:51:18;6.68;;;2.15;;
15356;SDS011;7778;48.792;9.260;2023-05-18T07:54:07;5.95;;;2.53;;
15356;SDS011;7778;48.792;9.260;2023-05-18T07:57:03;3.00;;;2.08;;
15356;SDS011;7778;48.792;9.260;2023-05-18T07:59:56;7.72;;;2.55;;
15356;SDS011;7778;48.792;9.260;2023-05-18T08:02:50;4.88;;;2.30;;
15356;SDS011;7778;48.792;9.260;2023-05-18T08:05:40;5.93;;;2.90;;
15356;SDS011;7778;48.792;9.260;2023-05-18T08:08:46;4.00;;;1.98;;
15356;SDS011;7778;48.792;9.260;2023-05-18T08:11:58;7.85;;;2.80;;
15356;SDS011;7778;48.792;9.260;2023-05-18T08:14:45;7.40;;;2.38;;
15356;SDS011;7778;48.792;9.260;2023-05-18T08:17:34;8.73;;;2.33;;
15356;SDS011;7778;48.792;9.260;2023-05-18T08:20:43;2.50;;;2.00;;
15356;SDS011;7778;48.792;9.260;2023-05-18T08:23:29;5.55;;;2.40;;
15356;SDS011;7778;48.792;9.260;2023-05-18T08:26:16;7.65;;;2.80;;
15356;SDS011;7778;48.792;9.260;2023-05-18T08:29:07;8.35;;;2.63;;
15356;SDS011;7778;48.792;9.260;2023-05-18T08:31:56;5.80;;;2.15;;
15356;SDS011;7778;48.792;9.260;2023-05-18T08:34:45;4.57;;;2.40;;
15356;SDS011;7778;48.792;9.260;2023-05-18T08:37:37;12.43;;;2.60;;
15356;SDS011;7778;48.792;9.260;2023-05-18T08:40:51;5.35;;;2.33;;
15356;SDS011;7778;48.792;9.260;2023-05-18T08:43:58;6.63;;;2.20;;
15356;SDS011;7778;48.792;9.260;2023-05-18T08:46:49;3.63;;;2.00;;
15356;SDS011;7778;48.792;9.260;2023-05-18T08:49:51;5.00;;;2.38;;
15356;SDS011;7778;48.792;9.260;2023-05-18T08:52:41;4.15;;;2.63;;
15356;SDS011;7778;48.792;9.260;2023-05-18T08:55:38;5.00;;;2.58;;
15356;SDS011;7778;48.792;9.260;2023-05-18T08:58:32;7.15;;;2.50;;
15356;SDS011;7778;48.792;9.260;2023-05-18T09:01:23;5.50;;;2.60;;
15356;SDS011;7778;48.792;9.260;2023-05-18T09:04:25;6.78;;;2.42;;
15356;SDS011;7778;48.792;9.260;2023-05-18T09:07:11;2.10;;;1.80;;
15356;SDS011;7778;48.792;9.260;2023-05-18T09:09:59;6.43;;;2.63;;
15356;SDS011;7778;48.792;9.260;2023-05-18T09:12:49;5.82;;;2.50;;
15356;SDS011;7778;48.792;9.260;2023-05-18T09:15:39;3.20;;;1.92;;
15356;SDS011;7778;48.792;9.260;2023-05-18T09:18:29;14.05;;;3.05;;
15356;SDS011;7778;48.792;9.260;2023-05-18T09:21:17;6.85;;;2.80;;
15356;SDS011;7778;48.792;9.260;2023-05-18T09:24:05;5.45;;;2.10;;
15356;SDS011;7778;48.792;9.260;2023-05-18T09:27:02;6.70;;;2.42;;
15356;SDS011;7778;48.792;9.260;2023-05-18T09:29:50;5.22;;;2.38;;
15356;SDS011;7778;48.792;9.260;2023-05-18T09:32:37;5.90;;;1.55;;
15356;SDS011;7778;48.792;9.260;2023-05-18T09:35:40;3.28;;;2.10;;
15356;SDS011;7778;48.792;9.260;2023-05-18T09:38:26;6.63;;;2.03;;
15356;SDS011;7778;48.792;9.260;2023-05-18T09:41:13;8.35;;;2.53;;
15356;SDS011;7778;48.792;9.260;2023-05-18T09:44:02;7.97;;;2.83;;
15356;SDS011;7778;48.792;9.260;2023-05-18T09:46:54;3.90;;;2.20;;
15356;SDS011;7778;48.792;9.260;2023-05-18T09:49:47;5.13;;;1.92;;
15356;SDS011;7778;48.792;9.260;2023-05-18T09:52:41;6.70;;;2.70;;
15356;SDS011;7778;48.792;9.260;2023-05-18T09:55:35;4.90;;;2.40;;
15356;SDS011;7778;48.792;9.260;2023-05-18T09:58:31;5.70;;;2.60;;
15356;SDS011;7778;48.792;9.260;2023-05-18T10:01:23;6.78;;;2.22;;
15356;SDS011;7778;48.792;9.260;2023-05-18T10:04:09;8.23;;;2.83;;
15356;SDS011;7778;48.792;9.260;2023-05-18T10:07:00;9.13;;;2.45;;
15356;SDS011;7778;48.792;9.260;2023-05-18T10:10:01;4.70;;;2.00;;
15356;SDS011;7778;48.792;9.260;2023-05-18T10:12:53;6.18;;;2.58;;
15356;SDS011;7778;48.792;9.260;2023-05-18T10:15:50;6.80;;;2.08;;
15356;SDS011;7778;48.792;9.260;2023-05-18T10:18:38;5.85;;;2.15;;
15356;SDS011;7778;48.792;9.260;2023-05-18T10:21:29;3.72;;;2.42;;
15356;SDS011;7778;48.792;9.260;2023-05-18T10:24:24;6.15;;;2.63;;
15356;SDS011;7778;48.792;9.260;2023-05-18T10:27:15;5.82;;;2.60;;
15356;SDS011;7778;48.792;9.260;2023-05-18T10:30:13;10.98;;;2.50;;
15356;SDS011;7778;48.792;9.260;2023-05-18T10:33:03;6.80;;;2.78;;
15356;SDS011;7778;48.792;9.260;2023-05-18T10:35:54;4.22;;;2.47;;
15356;SDS011;7778;48.792;9.260;2023-05-18T10:38:41;6.85;;;2.65;;
15356;SDS011;7778;48.792;9.260;2023-05-18T10:41:43;5.55;;;2.25;;
15356;SDS011;7778;48.792;9.260;2023-05-18T10:44:35;3.25;;;2.17;;
15356;SDS011;7778;48.792;9.260;2023-05-18T10:47:27;4.35;;;2.42;;
15356;SDS011;7778;48.792;9.260;2023-05-18T10:50:18;5.18;;;2.67;;
15356;SDS011;7778;48.792;9.260;2023-05-18T10:53:09;6.65;;;2.63;;
15356;SDS011;7778;48.792;9.260;2023-05-18T10:55:56;3.90;;;2.30;;
15356;SDS011;7778;48.792;9.260;2023-05-18T10:58:42;8.63;;;3.03;;
15356;SDS011;7778;48.792;9.260;2023-05-18T11:01:31;3.03;;;1.10;;
15356;SDS011;7778;48.792;9.260;2023-05-18T11:04:25;6.05;;;2.25;;
15356;SDS011;7778;48.792;9.260;2023-05-18T11:07:22;5.47;;;1.90;;
15356;SDS011;7778;48.792;9.260;2023-05-18T11:10:11;7.00;;;2.38;;
15356;SDS011;7778;48.792;9.260;2023-05-18T11:13:05;3.97;;;1.63;;
15356;SDS011;7778;48.792;9.260;2023-05-18T11:16:02;6.90;;;2.40;;
15356;SDS011;7778;48.792;9.260;2023-05-18T11:18:55;8.10;;;2.38;;
15356;SDS011;7778;48.792;9.260;2023-05-18T11:21:52;5.57;;;2.25;;
15356;SDS011;7778;48.792;9.260;2023-05-18T11:24:43;3.30;;;1.70;;
15356;SDS011;7778;48.792;9.260;2023-05-18T11:27:30;5.85;;;2.15;;
15356;SDS011;7778;48.792;9.260;2023-05-18T11:30:25;5.78;;;2.40;;
15356;SDS011;7778;48.792;9.260;2023-05-18T11:33:14;3.55;;;1.88;;
15356;SDS011;7778;48.792;9.260;2023-05-18T11:36:14;7.32;;;2.00;;
15356;SDS011;7778;48.792;9.260;2023-05-18T11:39:13;4.30;;;2.25;;
15356;SDS011;7778;48.792;9.260;2023-05-18T11:42:16;4.03;;;1.70;;
15356;SDS011;7778;48.792;9.260;2023-05-18T11:45:06;3.03;;;1.48;;
15356;SDS011;7778;48.792;9.260;2023-05-18T11:48:00;5.53;;;1.88;;
15356;SDS011;7778;48.792;9.260;2023-05-18T11:50:46;7.85;;;2.55;;
15356;SDS011;7778;48.792;9.260;2023-05-18T11:53:35;3.78;;;1.60;;
15356;SDS011;7778;48.792;9.260;2023-05-18T11:56:25;4.50;;;1.80;;
15356;SDS011;7778;48.792;9.260;2023-05-18T11:59:17;6.05;;;1.98;;
15356;SDS011;7778;48.792;9.260;2023-05-18T12:02:17;4.13;;;1.83;;
15356;SDS011;7778;48.792;9.260;2023-05-18T12:05:10;3.83;;;1.73;;
15356;SDS011;7778;48.792;9.260;2023-05-18T12:07:56;4.30;;;1.80;;
15356;SDS011;7778;48.792;9.260;2023-05-18T12:10:44;6.95;;;2.03;;
15356;SDS011;7778;48.792;9.260;2023-05-18T12:13:30;7.28;;;2.15;;
15356;SDS011;7778;48.792;9.260;2023-05-18T12:16:15;7.93;;;2.47;;
15356;SDS011;7778;48.792;9.260;2023-05-18T12:19:01;9.57;;;2.28;;
15356;SDS011;7778;48.792;9.260;2023-05-18T12:21:47;4.57;;;1.38;;
15356;SDS011;7778;48.792;9.260;2023-05-18T12:24:33;4.97;;;2.25;;
15356;SDS011;7778;48.792;9.260;2023-05-18T12:27:20;4.05;;;1.83;;
15356;SDS011;7778;48.792;9.260;2023-05-18T12:30:09;3.83;;;2.20;;
15356;SDS011;7778;48.792;9.260;2023-05-18T12:32:56;3.75;;;1.52;;
15356;SDS011;7778;48.792;9.260;2023-05-18T12:35:42;6.70;;;2.35;;
15356;SDS011;7778;48.792;9.260;2023-05-18T12:38:28;4.40;;;1.38;;
15356;SDS011;7778;48.792;9.260;2023-05-18T12:41:22;5.28;;;1.75;;
15356;SDS011;7778;48.792;9.260;2023-05-18T12:44:10;8.40;;;2.00;;
15356;SDS011;7778;48.792;9.260;2023-05-18T12:46:56;4.70;;;2.08;;
15356;SDS011;7778;48.792;9.260;2023-05-18T12:49:47;8.27;;;1.85;;
15356;SDS011;7778;48.792;9.260;2023-05-18T12:52:33;4.93;;;1.88;;
15356;SDS011;7778;48.792;9.260;2023-05-18T12:55:19;8.43;;;1.90;;
15356;SDS011;7778;48.792;9.260;2023-05-18T12:58:11;8.20;;;2.55;;
15356;SDS011;7778;48.792;9.260;2023-05-18T13:01:05;7.50;;;2.17;;
15356;SDS011;7778;48.792;9.260;2023-05-18T13:03:55;4.15;;;1.65;;
15356;SDS011;7778;48.792;9.260;2023-05-18T13:06:42;7.20;;;1.95;;
15356;SDS011;7778;48.792;9.260;2023-05-18T13:09:28;5.20;;;2.17;;
15356;SDS011;7778;48.792;9.260;2023-05-18T13:12:13;9.38;;;2.22;;
15356;SDS011;7778;48.792;9.260;2023-05-18T13:15:04;2.47;;;1.40;;
15356;SDS011;7778;48.792;9.260;2023-05-18T13:18:00;2.72;;;1.60;;
15356;SDS011;7778;48.792;9.260;2023-05-18T13:20:48;5.93;;;1.88;;
15356;SDS011;7778;48.792;9.260;2023-05-18T13:23:36;7.32;;;2.30;;
15356;SDS011;7778;48.792;9.260;2023-05-18T13:26:22;3.13;;;1.50;;
15356;SDS011;7778;48.792;9.260;2023-05-18T13:29:09;4.93;;;2.17;;
15356;SDS011;7778;48.792;9.260;2023-05-18T13:31:54;5.28;;;1.90;;
15356;SDS011;7778;48.792;9.260;2023-05-18T13:34:41;3.08;;;2.17;;
15356;SDS011;7778;48.792;9.260;2023-05-18T13:37:27;5.95;;;2.10;;
15356;SDS011;7778;48.792;9.260;2023-05-18T13:40:12;7.03;;;1.45;;
15356;SDS011;7778;48.792;9.260;2023-05-18T13:42:58;3.58;;;1.48;;
15356;SDS011;7778;48.792;9.260;2023-05-18T13:45:44;4.63;;;1.65;;
15356;SDS011;7778;48.792;9.260;2023-05-18T13:48:30;5.15;;;1.65;;
15356;SDS011;7778;48.792;9.260;2023-05-18T13:51:17;4.60;;;2.00;;
15356;SDS011;7778;48.792;9.260;2023-05-18T13:54:03;11.82;;;2.10;;
15356;SDS011;7778;48.792;9.260;2023-05-18T13:56:50;4.60;;;2.03;;
15356;SDS011;7778;48.792;9.260;2023-05-18T13:59:37;3.65;;;1.63;;
15356;SDS011;7778;48.792;9.260;2023-05-18T14:02:23;5.22;;;1.98;;
15356;SDS011;7778;48.792;9.260;2023-05-18T14:05:08;3.28;;;1.35;;
15356;SDS011;7778;48.792;9.260;2023-05-18T14:07:56;4.53;;;1.63;;
15356;SDS011;7778;48.792;9.260;2023-05-18T14:10:42;3.40;;;1.52;;
15356;SDS011;7778;48.792;9.260;2023-05-18T14:13:27;3.80;;;1.70;;
15356;SDS011;7778;48.792;9.260;2023-05-18T14:16:13;5.75;;;1.83;;
15356;SDS011;7778;48.792;9.260;2023-05-18T14:18:58;5.03;;;1.33;;
15356;SDS011;7778;48.792;9.260;2023-05-18T14:21:44;3.13;;;1.55;;
15356;SDS011;7778;48.792;9.260;2023-05-18T14:24:31;6.25;;;1.90;;
15356;SDS011;7778;48.792;9.260;2023-05-18T14:27:16;4.40;;;1.80;;
15356;SDS011;7778;48.792;9.260;2023-05-18T14:30:03;2.90;;;1.77;;
15356;SDS011;7778;48.792;9.260;2023-05-18T14:32:50;4.47;;;2.08;;
15356;SDS011;7778;48.792;9.260;2023-05-18T14:35:35;4.97;;;2.40;;
15356;SDS011;7778;48.792;9.260;2023-05-18T14:38:22;5.03;;;1.85;;
15356;SDS011;7778;48.792;9.260;2023-05-18T14:41:11;4.35;;;1.60;;
15356;SDS011;7778;48.792;9.260;2023-05-18T14:43:56;6.95;;;2.00;;
15356;SDS011;7778;48.792;9.260;2023-05-18T14:46:42;5.55;;;1.60;;
15356;SDS011;7778;48.792;9.260;2023-05-18T14:49:28;5.30;;;1.85;;
15356;SDS011;7778;48.792;9.260;2023-05-18T14:52:14;5.75;;;1.95;;
15356;SDS011;7778;48.792;9.260;2023-05-18T14:54:59;5.53;;;1.70;;
15356;SDS011;7778;48.792;9.260;2023-05-18T14:57:46;8.43;;;1.60;;
15356;SDS011;7778;48.792;9.260;2023-05-18T15:00:32;3.83;;;1.80;;
15356;SDS011;7778;48.792;9.260;2023-05-18T15:03:17;5.45;;;2.03;;
15356;SDS011;7778;48.792;9.260;2023-05-18T15:06:03;3.67;;;2.22;;
15356;SDS011;7778;48.792;9.260;2023-05-18T15:08:49;3.33;;;2.00;;
15356;SDS011;7778;48.792;9.260;2023-05-18T15:11:35;7.05;;;2.35;;
15356;SDS011;7778;48.792;9.260;2023-05-18T15:14:22;2.22;;;1.40;;
15356;SDS011;7778;48.792;9.260;2023-05-18T15:17:08;5.95;;;1.77;;
15356;SDS011;7778;48.792;9.260;2023-05-18T15:19:55;6.18;;;1.73;;
15356;SDS011;7778;48.792;9.260;2023-05-18T15:22:40;5.65;;;2.35;;
15356;SDS011;7778;48.792;9.260;2023-05-18T15:25:26;6.63;;;2.08;;
15356;SDS011;7778;48.792;9.260;2023-05-18T15:28:13;4.25;;;1.90;;
15356;SDS011;7778;48.792;9.260;2023-05-18T15:31:00;4.47;;;1.90;;
15356;SDS011;7778;48.792;9.260;2023-05-18T15:33:46;5.45;;;1.90;;
15356;SDS011;7778;48.792;9.260;2023-05-18T15:36:32;3.47;;;1.63;;
15356;SDS011;7778;48.792;9.260;2023-05-18T15:39:19;3.35;;;1.80;;
15356;SDS011;7778;48.792;9.260;2023-05-18T15:42:04;4.32;;;1.80;;
15356;SDS011;7778;48.792;9.260;2023-05-18T15:44:50;4.25;;;1.55;;
15356;SDS011;7778;48.792;9.260;2023-05-18T15:47:37;10.43;;;2.28;;
15356;SDS011;7778;48.792;9.260;2023-05-18T15:50:24;6.32;;;2.38;;
15356;SDS011;7778;48.792;9.260;2023-05-18T15:53:10;4.10;;;1.80;;
15356;SDS011;7778;48.792;9.260;2023-05-18T15:55:58;5.07;;;2.38;;
15356;SDS011;7778;48.792;9.260;2023-05-18T15:58:44;5.65;;;1.95;;
15356;SDS011;7778;48.792;9.260;2023-05-18T16:01:29;3.05;;;1.38;;
15356;SDS011;7778;48.792;9.260;2023-05-18T16:04:16;2.92;;;1.33;;
15356;SDS011;7778;48.792;9.260;2023-05-18T16:07:02;4.75;;;1.77;;
15356;SDS011;7778;48.792;9.260;2023-05-18T16:09:48;3.55;;;1.63;;
15356;SDS011;7778;48.792;9.260;2023-05-18T16:12:34;2.88;;;1.60;;
15356;SDS011;7778;48.792;9.260;2023-05-18T16:15:19;6.22;;;2.00;;
15356;SDS011;7778;48.792;9.260;2023-05-18T16:18:07;4.40;;;1.63;;
15356;SDS011;7778;48.792;9.260;2023-05-18T16:20:54;3.88;;;1.92;;
15356;SDS011;7778;48.792;9.260;2023-05-18T16:23:40;2.78;;;1.58;;
15356;SDS011;7778;48.792;9.260;2023-05-18T16:26:26;4.63;;;2.67;;
15356;SDS011;7778;48.792;9.260;2023-05-18T16:29:12;3.53;;;2.00;;
15356;SDS011;7778;48.792;9.260;2023-05-18T16:31:58;6.88;;;2.88;;
15356;SDS011;7778;48.792;9.260;2023-05-18T16:34:44;5.43;;;1.80;;
15356;SDS011;7778;48.792;9.260;2023-05-18T16:37:30;3.55;;;1.92;;
15356;SDS011;7778;48.792;9.260;2023-05-18T16:40:16;6.07;;;2.00;;
15356;SDS011;7778;48.792;9.260;2023-05-18T16:43:02;5.07;;;2.45;;
15356;SDS011;7778;48.792;9.260;2023-05-18T16:45:47;9.25;;;2.63;;
15356;SDS011;7778;48.792;9.260;2023-05-18T16:48:33;8.90;;;3.08;;
15356;SDS011;7778;48.792;9.260;2023-05-18T16:51:18;3.05;;;1.55;;
15356;SDS011;7778;48.792;9.260;2023-05-18T16:54:06;6.70;;;2.20;;
15356;SDS011;7778;48.792;9.260;2023-05-18T16:56:51;9.25;;;2.53;;
15356;SDS011;7778;48.792;9.260;2023-05-18T16:59:37;4.90;;;1.88;;
15356;SDS011;7778;48.792;9.260;2023-05-18T17:02:23;7.20;;;2.20;;
15356;SDS011;7778;48.792;9.260;2023-05-18T17:05:09;3.20;;;1.60;;
15356;SDS011;7778;48.792;9.260;2023-05-18T17:07:55;6.97;;;2.38;;